createdAt,value
2023-02-23T00:01:49.327Z,28.50
2023-02-23T00:04:19.673Z,28.93
2023-02-23T00:06:48.024Z,30.87
2023-02-23T00:09:23.128Z,29.57
2023-02-23T00:11:51.667Z,30.37
2023-02-23T00:14:20.336Z,29.03
2023-02-23T00:16:48.604Z,30.77
2023-02-23T00:19:18.529Z,32.23
2023-02-23T00:21:49.065Z,29.77
2023-02-23T00:24:19.223Z,32.73
2023-02-23T00:26:47.988Z,29.83
2023-02-23T00:29:18.981Z,30.13
2023-02-23T00:31:49.477Z,29.97
2023-02-23T00:34:22.007Z,32.33
2023-02-23T00:36:51.582Z,29.90
2023-02-23T00:39:21.800Z,29.83
2023-02-23T00:41:50.249Z,29.60
2023-02-23T00:44:18.484Z,29.30
2023-02-23T00:46:51.521Z,29.60
2023-02-23T00:49:22.719Z,29.43
2023-02-23T00:51:52.119Z,29.10
2023-02-23T00:54:23.061Z,30.67
2023-02-23T00:56:51.721Z,29.37
2023-02-23T00:59:20.968Z,32.03
2023-02-23T01:01:50.191Z,29.90
2023-02-23T01:04:24.137Z,30.50
2023-02-23T01:06:52.552Z,30.27
2023-02-23T01:09:28.102Z,29.50
2023-02-23T01:11:57.774Z,29.80
2023-02-23T01:14:26.275Z,31.47
2023-02-23T01:16:54.990Z,31.43
2023-02-23T01:19:24.635Z,30.33
2023-02-23T01:21:52.910Z,29.40
2023-02-23T01:24:21.125Z,29.67
2023-02-23T01:26:49.281Z,30.93
2023-02-23T01:29:19.193Z,28.43
2023-02-23T01:31:51.180Z,29.60
2023-02-23T01:34:21.742Z,30.63
2023-02-23T01:36:51.599Z,28.40
2023-02-23T01:39:21.584Z,28.17
2023-02-23T01:41:51.877Z,31.73
2023-02-23T01:45:06.262Z,29.00
2023-02-23T01:47:37.770Z,29.20
2023-02-23T01:50:06.433Z,30.03
2023-02-23T01:52:37.067Z,29.50
2023-02-23T01:55:07.057Z,29.23
2023-02-23T01:57:35.362Z,30.57
2023-02-23T02:00:07.729Z,29.33
2023-02-23T02:02:41.287Z,28.67
2023-02-23T02:05:30.872Z,27.60
2023-02-23T02:08:01.104Z,29.67
2023-02-23T02:10:45.235Z,28.00
2023-02-23T02:13:21.047Z,29.40
2023-02-23T02:16:28.945Z,29.67
2023-02-23T02:19:38.135Z,28.73
2023-02-23T02:22:43.485Z,26.70
2023-02-23T02:25:46.922Z,27.17
2023-02-23T02:28:54.747Z,27.57
2023-02-23T02:32:03.188Z,27.27
2023-02-23T02:35:07.648Z,27.17
2023-02-23T02:37:56.781Z,26.77
2023-02-23T02:40:29.947Z,27.50
2023-02-23T02:43:10.233Z,28.80
2023-02-23T02:45:48.733Z,28.33
2023-02-23T02:48:26.795Z,27.50
2023-02-23T02:50:59.602Z,26.97
2023-02-23T02:53:41.595Z,30.13
2023-02-23T02:56:17.283Z,28.23
2023-02-23T02:58:48.631Z,28.63
2023-02-23T03:01:36.725Z,27.60
2023-02-23T03:04:39.753Z,29.80
2023-02-23T03:07:35.350Z,28.40
2023-02-23T03:10:33.308Z,28.80
2023-02-23T03:13:32.866Z,28.00
2023-02-23T03:16:34.278Z,28.20
2023-02-23T03:19:32.662Z,29.80
2023-02-23T03:22:25.625Z,27.63
2023-02-23T03:25:18.936Z,29.10
2023-02-23T03:28:10.959Z,27.70
2023-02-23T03:31:05.623Z,27.87
2023-02-23T03:33:59.702Z,30.90
2023-02-23T03:36:49.493Z,29.37
2023-02-23T03:39:42.692Z,28.70
2023-02-23T03:42:32.734Z,30.43
2023-02-23T03:45:24.570Z,28.00
2023-02-23T03:48:14.485Z,28.20
2023-02-23T03:51:04.298Z,28.20
2023-02-23T03:53:54.760Z,27.77
2023-02-23T03:56:44.451Z,27.40
2023-02-23T03:59:37.967Z,29.03
2023-02-23T04:02:26.804Z,27.37
2023-02-23T04:05:16.468Z,25.93
2023-02-23T04:08:04.983Z,27.17
2023-02-23T04:10:54.248Z,27.83
2023-02-23T04:13:27.131Z,26.23
2023-02-23T04:15:57.083Z,26.50
2023-02-23T04:18:29.744Z,27.50
2023-02-23T04:20:59.403Z,28.77
2023-02-23T04:23:28.743Z,28.47
2023-02-23T04:25:57.783Z,27.33
2023-02-23T04:28:28.316Z,29.57
2023-02-23T04:30:56.760Z,29.50
2023-02-23T04:33:27.242Z,29.40
2023-02-23T04:35:55.816Z,30.00
2023-02-23T04:38:26.287Z,30.10
2023-02-23T04:40:54.492Z,30.27
2023-02-23T04:43:22.678Z,28.80
2023-02-23T04:45:50.854Z,30.83
2023-02-23T04:48:19.228Z,27.97
2023-02-23T04:50:49.132Z,32.03
2023-02-23T04:53:17.796Z,30.10
2023-02-23T04:55:47.358Z,30.67
2023-02-23T04:58:15.951Z,30.43
2023-02-23T05:00:44.183Z,31.27
2023-02-23T05:03:12.985Z,30.13
2023-02-23T05:05:41.206Z,30.33
2023-02-23T05:08:11.021Z,31.30
2023-02-23T05:10:40.467Z,29.33
2023-02-23T05:13:08.963Z,29.73
2023-02-23T05:15:37.542Z,29.17
2023-02-23T05:18:05.836Z,30.53
2023-02-23T05:20:34.022Z,29.23
2023-02-23T05:23:02.156Z,29.40
2023-02-23T05:25:31.763Z,28.63
2023-02-23T05:28:00.777Z,30.37
2023-02-23T05:30:29.038Z,29.13
2023-02-23T05:32:57.276Z,28.60
2023-02-23T05:35:25.653Z,31.40
2023-02-23T05:37:53.884Z,30.17
2023-02-23T05:40:22.067Z,31.03
2023-02-23T05:42:51.930Z,29.73
2023-02-23T05:45:20.096Z,31.00
2023-02-23T05:47:48.295Z,29.87
2023-02-23T05:50:16.548Z,28.50
2023-02-23T05:52:45.705Z,29.97
2023-02-23T05:55:14.192Z,32.20
2023-02-23T05:57:42.850Z,31.40
2023-02-23T06:00:14.492Z,29.37
2023-02-23T06:02:42.905Z,31.00
2023-02-23T06:05:12.168Z,30.13
2023-02-23T06:07:42.231Z,30.07
2023-02-23T06:10:13.760Z,31.20
2023-02-23T06:12:48.527Z,29.53
2023-02-23T06:15:18.758Z,34.40
2023-02-23T06:17:46.937Z,32.03
2023-02-23T06:20:15.857Z,32.43
2023-02-23T06:22:44.080Z,31.87
2023-02-23T06:25:13.583Z,31.47
2023-02-23T06:27:42.306Z,32.63
2023-02-23T06:30:12.477Z,33.70
2023-02-23T06:32:42.560Z,30.77
2023-02-23T06:35:14.238Z,31.80
2023-02-23T06:37:46.445Z,31.27
2023-02-23T06:40:16.008Z,32.20
2023-02-23T06:42:44.618Z,31.63
2023-02-23T06:45:15.390Z,32.87
2023-02-23T06:47:51.161Z,36.53
2023-02-23T06:50:28.500Z,35.60
2023-02-23T06:53:06.398Z,37.43
2023-02-23T06:55:34.727Z,38.90
2023-02-23T06:58:09.968Z,34.10
2023-02-23T07:00:39.243Z,35.00
2023-02-23T07:03:12.304Z,34.03
2023-02-23T07:05:41.098Z,34.83
2023-02-23T07:08:17.181Z,36.07
2023-02-23T07:10:50.244Z,33.40
2023-02-23T07:13:25.834Z,34.43
2023-02-23T07:15:59.858Z,36.27
2023-02-23T07:18:39.057Z,35.57
2023-02-23T07:21:11.030Z,33.43
2023-02-23T07:23:39.505Z,35.77
2023-02-23T07:26:08.484Z,39.83
2023-02-23T07:28:37.290Z,37.60
2023-02-23T07:31:05.889Z,35.70
2023-02-23T07:33:37.687Z,35.87
2023-02-23T07:36:26.907Z,35.77
2023-02-23T07:39:06.651Z,34.60
2023-02-23T07:42:01.995Z,36.70
2023-02-23T07:51:18.515Z,35.90
2023-02-23T07:54:12.398Z,36.30
2023-02-23T07:56:40.861Z,32.63
2023-02-23T08:02:12.200Z,36.77
2023-02-23T08:04:58.680Z,37.77
2023-02-23T08:08:05.395Z,36.10
2023-02-23T08:13:54.977Z,36.10
2023-02-23T08:16:41.400Z,35.77
2023-02-23T08:19:13.317Z,35.73
2023-02-23T08:25:16.597Z,36.33
2023-02-23T08:28:15.222Z,38.47
2023-02-23T08:30:52.346Z,35.83
2023-02-23T08:36:38.353Z,37.07
2023-02-23T08:39:17.086Z,36.17
2023-02-23T08:41:51.523Z,32.40
2023-02-23T08:44:19.804Z,34.93
2023-02-23T08:46:48.074Z,36.37
2023-02-23T08:49:38.096Z,36.33
2023-02-23T08:52:19.215Z,38.43
2023-02-23T08:54:47.545Z,36.23
2023-02-23T08:57:17.846Z,33.93
2023-02-23T08:59:46.722Z,35.27
2023-02-23T09:02:16.164Z,36.33
2023-02-23T09:04:47.672Z,36.13
2023-02-23T09:07:18.530Z,30.07
2023-02-23T09:09:46.817Z,33.13
2023-02-23T09:12:16.600Z,35.67
2023-02-23T09:14:44.892Z,34.23
2023-02-23T09:17:13.131Z,37.50
2023-02-23T09:19:41.658Z,35.70
2023-02-23T09:22:10.134Z,35.70
2023-02-23T09:24:39.482Z,37.10
2023-02-23T09:27:12.968Z,35.23
2023-02-23T09:29:53.023Z,37.33
2023-02-23T09:32:28.807Z,39.13
2023-02-23T09:34:57.415Z,34.90
2023-02-23T09:37:25.662Z,34.87
2023-02-23T09:39:58.166Z,33.60
2023-02-23T09:42:53.934Z,35.23
2023-02-23T09:45:38.554Z,33.03
2023-02-23T09:48:19.106Z,35.60
2023-02-23T09:55:02.886Z,32.63
2023-02-23T09:57:38.635Z,28.70
2023-02-23T10:00:18.040Z,33.67
2023-02-23T10:03:16.067Z,32.40
2023-02-23T10:06:08.404Z,33.83
2023-02-23T10:09:12.130Z,34.57
2023-02-23T10:12:02.153Z,33.10
2023-02-23T10:15:15.680Z,33.30
2023-02-23T10:17:59.222Z,32.37
2023-02-23T10:20:37.704Z,32.83
2023-02-23T10:23:12.016Z,33.80
2023-02-23T10:25:46.011Z,34.60
2023-02-23T10:28:23.470Z,34.47
2023-02-23T10:30:54.016Z,33.97
2023-02-23T10:33:27.850Z,34.07
2023-02-23T10:39:56.393Z,37.90
2023-02-23T10:42:29.109Z,35.10
2023-02-23T10:44:58.476Z,35.57
2023-02-23T10:47:30.729Z,35.87
2023-02-23T10:50:16.234Z,33.07
2023-02-23T10:52:50.098Z,33.63
2023-02-23T10:55:38.158Z,31.13
2023-02-23T10:58:20.717Z,32.27
2023-02-23T11:00:56.844Z,33.93
2023-02-23T11:16:51.837Z,29.80
2023-02-23T11:20:18.763Z,33.77
2023-02-23T11:23:44.640Z,31.43
2023-02-23T11:27:27.656Z,31.50
2023-02-23T11:30:10.889Z,31.93
2023-02-23T11:33:16.851Z,31.40
2023-02-23T11:36:01.886Z,32.03
2023-02-23T11:55:18.866Z,29.27
2023-02-23T12:06:23.332Z,29.80
2023-02-23T12:12:34.008Z,30.53
2023-02-23T12:15:53.475Z,28.93
2023-02-23T12:19:08.989Z,29.73
2023-02-23T12:22:14.074Z,32.13
2023-02-23T12:25:14.117Z,30.27
2023-02-23T12:28:46.284Z,29.30
2023-02-23T12:32:14.786Z,30.37
2023-02-23T12:49:31.257Z,30.43
2023-02-23T12:52:34.803Z,28.63
2023-02-23T13:00:03.650Z,30.83
2023-02-23T13:06:54.206Z,30.23
2023-02-23T13:14:25.438Z,29.33
2023-02-23T13:21:23.011Z,31.40
2023-02-23T13:24:29.514Z,29.67
2023-02-23T13:27:33.596Z,31.17
2023-02-23T13:59:57.101Z,29.20
2023-02-23T14:18:37.077Z,28.93
2023-02-23T14:22:24.652Z,29.03
2023-02-23T14:30:38.761Z,29.63
2023-02-23T14:36:59.272Z,28.23
2023-02-23T14:39:57.705Z,29.20
2023-02-23T14:43:06.715Z,30.60
2023-02-23T14:46:05.888Z,27.17
2023-02-23T14:49:05.585Z,31.40
2023-02-23T14:51:58.082Z,30.73
2023-02-23T14:54:46.123Z,32.27
2023-02-23T14:58:06.330Z,34.07
2023-02-23T15:04:20.225Z,36.53
2023-02-23T15:07:25.723Z,35.47
2023-02-23T15:10:23.367Z,39.27
2023-02-23T15:16:28.588Z,38.50
2023-02-23T15:19:24.199Z,40.80
2023-02-23T15:22:05.206Z,38.03
2023-02-23T15:25:18.452Z,39.73
2023-02-23T15:28:07.283Z,40.97
2023-02-23T15:32:58.655Z,41.13
2023-02-23T15:34:29.441Z,39.60
2023-02-23T15:38:05.762Z,39.73
2023-02-23T15:40:56.867Z,39.27
2023-02-23T15:43:48.800Z,43.27
2023-02-23T15:46:53.808Z,39.73
2023-02-23T15:50:14.197Z,43.33
2023-02-23T15:53:47.676Z,40.67
2023-02-23T16:00:55.675Z,35.83
2023-02-23T16:07:58.388Z,39.37
2023-02-23T16:11:36.409Z,36.93
2023-02-23T16:14:41.071Z,38.90
2023-02-23T16:18:02.042Z,39.50
2023-02-23T16:27:54.319Z,36.30
2023-02-23T16:30:51.632Z,37.00
2023-02-23T16:33:50.575Z,36.90
2023-02-23T16:37:01.414Z,37.07
2023-02-23T16:48:58.317Z,35.03
2023-02-23T16:51:42.371Z,36.90
2023-02-23T16:54:22.963Z,37.13
2023-02-23T16:57:15.121Z,34.90
2023-02-23T17:00:05.251Z,38.80
2023-02-23T17:02:52.747Z,38.00
2023-02-23T17:05:41.335Z,37.63
2023-02-23T17:12:25.463Z,36.60
2023-02-23T17:15:27.324Z,38.83
2023-02-23T17:21:57.185Z,42.00
2023-02-23T17:25:29.730Z,38.83
2023-02-23T17:32:13.245Z,39.07
2023-02-23T17:35:21.025Z,40.40
2023-02-23T17:38:44.712Z,38.87
2023-02-23T17:41:36.715Z,42.17
2023-02-23T17:44:24.148Z,40.10
2023-02-23T17:47:21.380Z,41.60
2023-02-23T17:50:03.460Z,41.40
2023-02-23T17:52:53.279Z,42.60
2023-02-23T17:55:39.374Z,43.00
2023-02-23T17:58:36.699Z,39.53
2023-02-23T18:01:37.330Z,40.80
2023-02-23T18:04:54.526Z,48.27
2023-02-23T18:08:05.176Z,41.53
2023-02-23T18:10:57.137Z,45.10
2023-02-23T18:13:51.413Z,49.17
2023-02-23T18:16:31.176Z,45.30
2023-02-23T18:19:45.755Z,52.17
2023-02-23T18:30:35.814Z,52.87
2023-02-23T18:33:44.291Z,52.10
2023-02-23T18:37:31.383Z,58.90
2023-02-23T18:41:47.659Z,59.77
2023-02-23T18:44:55.066Z,61.03
2023-02-23T18:48:09.585Z,60.37
2023-02-23T18:51:30.694Z,49.90
2023-02-23T18:55:23.531Z,51.07
2023-02-23T18:58:50.114Z,43.57
2023-02-23T19:02:07.738Z,47.30
2023-02-23T19:22:52.511Z,52.40
2023-02-23T19:25:51.224Z,51.57
2023-02-23T19:28:45.650Z,51.40
2023-02-23T19:34:28.477Z,50.27
2023-02-23T19:37:09.990Z,52.00
2023-02-23T19:40:10.952Z,62.00
2023-02-23T19:42:53.447Z,57.17
2023-02-23T19:45:25.071Z,60.53
2023-02-23T19:47:55.681Z,62.67
2023-02-23T19:54:11.571Z,55.60
2023-02-23T20:00:32.380Z,59.03
2023-02-23T20:09:45.860Z,57.33
2023-02-23T20:12:15.157Z,59.10
2023-02-23T20:15:05.344Z,64.27
2023-02-23T20:18:20.426Z,60.93
2023-02-23T20:24:02.736Z,61.80
2023-02-23T20:26:52.111Z,57.47
2023-02-23T20:35:59.541Z,62.47
2023-02-23T20:38:38.988Z,63.13
2023-02-23T20:45:36.543Z,63.93
2023-02-23T20:48:09.953Z,55.67
2023-02-23T20:51:29.870Z,55.53
2023-02-23T20:54:42.178Z,56.83
2023-02-23T20:57:38.105Z,52.50
2023-02-23T21:00:22.497Z,56.30
2023-02-23T21:06:37.378Z,65.40
2023-02-23T21:09:46.944Z,67.37
2023-02-23T21:16:05.345Z,54.40
2023-02-23T21:19:06.141Z,56.70
2023-02-23T21:22:01.102Z,63.40
2023-02-23T21:24:33.942Z,52.67
2023-02-23T21:27:05.375Z,56.07
2023-02-23T21:29:34.589Z,55.80
2023-02-23T21:32:06.223Z,56.17
2023-02-23T21:34:34.641Z,62.70
2023-02-23T21:37:27.637Z,54.07
2023-02-23T21:39:56.220Z,51.30
2023-02-23T21:42:24.582Z,54.07
2023-02-23T21:44:52.880Z,59.60
2023-02-23T21:47:24.945Z,59.07
2023-02-23T21:49:54.458Z,74.87
2023-02-23T21:52:22.698Z,88.40
2023-02-23T21:54:51.262Z,72.80
2023-02-23T21:57:22.788Z,74.03
2023-02-23T21:59:51.491Z,84.40
2023-02-23T22:02:20.965Z,84.33
2023-02-23T22:04:52.195Z,78.77
2023-02-23T22:07:22.038Z,77.57
2023-02-23T22:09:50.611Z,94.73
2023-02-23T22:12:18.924Z,88.17
2023-02-23T22:14:47.586Z,82.73
2023-02-23T22:17:19.185Z,85.83
2023-02-23T22:19:54.712Z,82.53
2023-02-23T22:22:23.257Z,93.93
2023-02-23T22:24:51.507Z,99.70
2023-02-23T22:27:25.990Z,85.53
2023-02-23T22:29:54.532Z,97.37
2023-02-23T22:32:23.130Z,96.50
2023-02-23T22:34:56.320Z,93.67
2023-02-23T22:37:30.006Z,105.67
2023-02-23T22:39:59.916Z,107.27
2023-02-23T22:42:30.354Z,101.90
2023-02-23T22:45:01.535Z,108.53
2023-02-23T22:47:30.071Z,102.80
2023-02-23T22:50:05.583Z,97.93
2023-02-23T22:52:36.519Z,101.80
2023-02-23T22:55:04.991Z,99.70
2023-02-23T22:57:33.472Z,103.43
2023-02-23T23:00:08.517Z,106.97
2023-02-23T23:02:36.988Z,108.83
2023-02-23T23:05:10.446Z,97.67
2023-02-23T23:07:42.955Z,79.03
2023-02-23T23:10:12.850Z,94.87
2023-02-23T23:12:41.630Z,86.00
2023-02-23T23:15:15.096Z,92.57
2023-02-23T23:17:48.579Z,86.10
2023-02-23T23:20:23.021Z,78.63
2023-02-23T23:22:51.630Z,78.17
2023-02-23T23:25:23.129Z,78.90
2023-02-23T23:27:55.745Z,86.10
2023-02-23T23:30:26.297Z,85.13
2023-02-23T23:32:54.906Z,77.63
2023-02-23T23:35:26.789Z,92.80
2023-02-23T23:37:54.956Z,80.33
2023-02-23T23:40:25.513Z,74.10
2023-02-23T23:42:58.298Z,76.40
2023-02-23T23:45:49.610Z,77.77
2023-02-23T23:48:21.500Z,68.33
2023-02-23T23:50:51.248Z,77.90
2023-02-23T23:53:25.706Z,70.33
2023-02-23T23:55:53.978Z,76.70
2023-02-23T23:58:22.766Z,75.43
